If you wish to contribute or participate in the discussions about articles you are invited to join SKYbrary as a registered user

 Actions

Nay Pyi Taw International Airport

From SKYbrary Wiki

VYNT
Airport
ICAO: VYNT – IATA: NYT
Summary
Name Nay Pyi Taw International Airport
Region Asia and Pacific
Territory Myanmar MM.gif
Location Pyinmana, Naypyidaw Union Territory
Serving Nay Pyi Taw
Elevation 33.223 m
109 ft33.223 m
Coordinates 19° 36' 54.06" N, 96° 12' 46.86" E
Runways
Designator Length Width Surface ROPS


METAR
Observation VYNT 101000Z 20010KT 7000 SCT020 FEW025CB SCT120 35/24 Q1000 NOSIG
Station Namtu Airport
Date/Time 10 June 2019 10:00:00
Wind direction 200°
Wind speed 10 kts
Lowest cloud amount scattered clouds
Temperature 35°C
Dew point 24°C
Humidity 53%
QNH 1000 hPa
Weather condition n/a

Nay Pyi Taw International Airport, previously known as Ela Airport, is located 16 km8.639 nm
16,000 m
52,493.438 ft
southeast of Nay Pyi Taw, the capital of Myanmar.

Climatology

Tropical Savanna climate (Köppen climate classification Aw)

Maps

Terrain

Loading map...

Airport Layout

Loading map...


Accidents & Serious Incidents at or in vicinity of VYNT

None on SKYbrary